Time;durP1;ratioP1;P1;durP2;ratioP2;P2;SDS_P1;SDS_P2;PMS_P1;PMS_P2;Temp;Humidity;BMP_temperature;BMP_pressure;BME280_temperature;BME280_humidity;BME280_pressure;Samples;Min_cycle;Max_cycle;Signal;HPM_P1;HPM_P2
2022/10/27 00:01:05;;;;;;;0.75;0.40;;;;;;;13.60;100.00;102454.31;10626469;27;20043;-77
2022/10/27 00:06:07;;;;;;;0.17;0.17;;;;;;;13.55;100.00;102464.50;10625702;27;20085;-78
2022/10/27 00:11:09;;;;;;;0.20;0.20;;;;;;;13.45;100.00;102475.31;10626653;27;20077;-77
2022/10/27 00:16:16;;;;;;;0.22;0.20;;;;;;;13.29;100.00;102484.16;10626495;27;20482;-77
2022/10/27 00:21:19;;;;;;;0.20;0.20;;;;;;;13.45;100.00;102480.50;10606810;27;20043;-78
2022/10/27 00:26:21;;;;;;;4.75;0.80;;;;;;;13.55;100.00;102487.81;10606790;27;20043;-77
2022/10/27 00:31:22;;;;;;;0.00;0.00;;;;;;;13.61;100.00;102498.41;10606505;27;20066;-77
2022/10/27 00:36:24;;;;;;;0.45;0.45;;;;;;;13.72;100.00;102495.34;10626182;27;20043;-77
2022/10/27 00:41:32;;;;;;;0.70;0.43;;;;;;;13.75;100.00;102501.53;10624771;27;20074;-77
2022/10/27 00:46:40;;;;;;;0.90;0.90;;;;;;;13.73;100.00;102491.94;10624627;27;20049;-77
2022/10/27 00:51:48;;;;;;;0.52;0.10;;;;;;;13.76;100.00;102503.31;10624451;28;20126;-77
2022/10/27 00:56:51;;;;;;;0.20;0.20;;;;;;;13.86;100.00;102501.94;10605980;28;20039;-77
2022/10/27 01:01:54;;;;;;;0.55;0.50;;;;;;;13.84;100.00;102519.13;10624249;28;20047;-77
2022/10/27 01:06:56;;;;;;;0.40;0.40;;;;;;;13.87;100.00;102516.66;10607181;28;20047;-76
2022/10/27 01:11:58;;;;;;;1.08;0.50;;;;;;;13.92;100.00;102517.72;10624104;28;20512;-77
2022/10/27 01:17:21;;;;;;;0.40;0.40;;;;;;;13.95;100.00;102523.03;10605598;28;20125;-77
2022/10/27 01:22:38;;;;;;;1.15;0.98;;;;;;;13.83;100.00;102526.84;10606544;28;20078;-77
2022/10/27 01:27:49;;;;;;;0.90;0.65;;;;;;;13.93;100.00;102529.84;10605404;28;20506;-77
2022/10/27 01:33:11;;;;;;;1.30;0.98;;;;;;;13.85;100.00;102518.31;10605247;28;20046;-77
2022/10/27 01:38:28;;;;;;;0.43;0.30;;;;;;;13.90;100.00;102515.91;10624770;28;20122;-77
2022/10/27 01:43:31;;;;;;;1.17;0.30;;;;;;;13.84;100.00;102526.91;10612398;27;20428;-77
2022/10/27 01:48:36;;;;;;;0.80;0.35;;;;;;;13.75;100.00;102526.53;10631530;27;20096;-77
2022/10/27 01:53:45;;;;;;;1.05;0.20;;;;;;;13.77;100.00;102522.31;10612723;27;20053;-77
2022/10/27 01:58:47;;;;;;;0.50;0.50;;;;;;;13.73;100.00;102523.91;10630863;27;20045;-77
2022/10/27 02:03:58;;;;;;;0.30;0.13;;;;;;;13.69;100.00;102516.84;10630715;27;20114;-77
2022/10/27 02:09:13;;;;;;;0.00;0.00;;;;;;;13.63;100.00;102522.66;10630565;27;20088;-76
2022/10/27 02:14:15;;;;;;;0.63;0.38;;;;;;;13.55;100.00;102524.06;10612145;27;20047;-77
2022/10/27 02:19:21;;;;;;;0.38;0.25;;;;;;;13.44;100.00;102521.06;10612838;27;20063;-77
2022/10/27 02:24:23;;;;;;;0.45;0.30;;;;;;;13.45;100.00;102524.50;10649482;27;20394;-78
2022/10/27 02:29:32;;;;;;;0.50;0.25;;;;;;;13.38;100.00;102525.06;10639371;27;20046;-77
2022/10/27 02:34:36;;;;;;;0.52;0.47;;;;;;;13.36;100.00;102531.91;10629642;27;20070;-76
2022/10/27 02:39:37;;;;;;;1.17;0.15;;;;;;;13.36;100.00;102516.34;10629208;27;20553;-77
2022/10/27 02:44:39;;;;;;;0.52;0.10;;;;;;;13.36;100.00;102516.34;10610927;27;20047;-77
2022/10/27 02:49:41;;;;;;;0.80;0.47;;;;;;;13.26;100.00;102509.91;10610917;27;20416;-77
2022/10/27 02:54:47;;;;;;;0.90;0.65;;;;;;;13.15;100.00;102507.78;10628463;27;20050;-76
2022/10/27 02:59:48;;;;;;;1.00;0.45;;;;;;;13.23;100.00;102508.09;10610731;27;20039;-76
2022/10/27 03:04:54;;;;;;;1.58;0.40;;;;;;;13.11;100.00;102505.00;10629423;27;20424;-77
2022/10/27 03:09:55;;;;;;;0.00;0.00;;;;;;;13.08;100.00;102502.28;10628081;27;20096;-76
2022/10/27 03:14:57;;;;;;;1.65;0.65;;;;;;;13.11;100.00;102505.00;10628807;27;20047;-77
2022/10/27 03:19:59;;;;;;;0.47;0.28;;;;;;;13.02;100.00;102501.22;10627553;27;20035;-77
2022/10/27 03:25:01;;;;;;;5.07;1.25;;;;;;;13.10;100.00;102498.97;10627957;27;20043;-77
2022/10/27 03:30:02;;;;;;;0.47;0.20;;;;;;;12.97;100.00;102492.38;10608903;27;20081;-77
2022/10/27 03:35:05;;;;;;;0.13;0.10;;;;;;;13.00;100.00;102502.84;10608572;27;20051;-77
2022/10/27 03:40:07;;;;;;;0.40;0.40;;;;;;;12.95;100.00;102504.38;10626881;27;20039;-77
2022/10/27 03:45:11;;;;;;;0.22;0.20;;;;;;;12.90;100.00;102511.06;10608179;27;20043;-77
2022/10/27 03:50:13;;;;;;;0.20;0.20;;;;;;;12.83;100.00;102498.69;10626236;27;20043;-76
2022/10/27 03:55:14;;;;;;;0.35;0.35;;;;;;;12.81;100.00;102496.00;10607803;27;20565;-76
2022/10/27 04:00:17;;;;;;;0.40;0.40;;;;;;;12.80;100.00;102499.44;10607743;27;20063;-77
2022/10/27 04:05:18;;;;;;;0.45;0.40;;;;;;;12.75;100.00;102500.06;10625296;27;20039;-77
2022/10/27 04:10:20;;;;;;;0.82;0.75;;;;;;;12.72;100.00;102505.09;10625724;27;20462;-77
2022/10/27 04:15:25;;;;;;;0.30;0.30;;;;;;;12.69;100.00;102501.56;10625563;27;20517;-77
2022/10/27 04:20:27;;;;;;;0.43;0.38;;;;;;;12.69;100.00;102506.75;10606889;27;20039;-77
2022/10/27 04:25:28;;;;;;;0.80;0.65;;;;;;;12.74;100.00;102508.63;10625148;27;20076;-76
2022/10/27 04:30:30;;;;;;;0.63;0.50;;;;;;;12.76;100.00;102510.47;10625034;27;20073;-77
2022/10/27 04:35:32;;;;;;;1.65;0.82;;;;;;;12.83;100.00;102507.31;10624930;27;20057;-77
2022/10/27 04:40:34;;;;;;;1.42;0.50;;;;;;;12.95;100.00;102509.53;10625280;27;20043;-77
2022/10/27 04:45:36;;;;;;;0.77;0.30;;;;;;;12.91;100.00;102502.47;10606453;27;20042;-77
2022/10/27 04:50:37;;;;;;;0.38;0.20;;;;;;;12.89;100.00;102504.13;10624527;27;20035;-77
2022/10/27 04:55:39;;;;;;;1.77;0.57;;;;;;;12.93;100.00;102500.81;10606699;28;20050;-77
2022/10/27 05:00:41;;;;;;;0.20;0.20;;;;;;;12.92;100.00;102500.75;10624291;28;20097;-77
2022/10/27 05:05:43;;;;;;;1.20;0.32;;;;;;;12.87;100.00;102505.75;10624243;28;20051;-77
2022/10/27 05:10:45;;;;;;;0.20;0.20;;;;;;;12.60;100.00;102506.34;10624228;28;20122;-77
2022/10/27 05:15:47;;;;;;;5.32;1.38;;;;;;;12.64;100.00;102513.41;10608197;27;20043;-77
2022/10/27 05:20:48;;;;;;;0.45;0.40;;;;;;;12.76;100.00;102509.59;10633537;27;20103;-77
2022/10/27 05:25:52;;;;;;;2.58;0.85;;;;;;;12.69;100.00;102511.91;10613870;27;20039;-77
2022/10/27 05:30:58;;;;;;;0.95;0.63;;;;;;;12.84;100.00;102513.38;10632289;27;20070;-77
2022/10/27 05:35:59;;;;;;;3.28;1.02;;;;;;;12.89;100.00;102506.69;10613538;27;20402;-76
2022/10/27 05:41:01;;;;;;;1.65;0.80;;;;;;;12.87;100.00;102510.91;10614477;27;20079;-78
2022/10/27 05:46:02;;;;;;;3.50;1.08;;;;;;;12.83;100.00;102507.31;10643453;27;20077;-77
2022/10/27 05:51:06;;;;;;;0.30;0.22;;;;;;;12.96;100.00;102503.56;10620262;27;20134;-77
2022/10/27 05:56:08;;;;;;;0.57;0.28;;;;;;;12.81;100.00;102495.16;10631208;27;20138;-77
2022/10/27 06:01:09;;;;;;;0.65;0.65;;;;;;;12.77;100.00;102498.44;10612721;27;20070;-76
2022/10/27 06:06:11;;;;;;;0.93;0.57;;;;;;;12.72;100.00;102511.16;10612524;27;20047;-77
2022/10/27 06:11:13;;;;;;;1.02;0.63;;;;;;;12.64;100.00;102503.06;10612128;27;20078;-77
2022/10/27 06:16:14;;;;;;;0.25;0.20;;;;;;;12.63;100.00;102506.47;10630372;27;20118;-77
2022/10/27 06:21:16;;;;;;;1.30;1.17;;;;;;;12.60;100.00;102514.09;10630026;27;20066;-77
2022/10/27 06:26:17;;;;;;;0.30;0.30;;;;;;;12.61;100.00;102517.56;10629294;27;20114;-77
2022/10/27 06:31:21;;;;;;;0.25;0.22;;;;;;;12.59;100.00;102520.09;10611338;27;20065;-77
2022/10/27 06:36:23;;;;;;;1.52;0.50;;;;;;;12.61;100.00;102518.47;10611077;27;20067;-77
2022/10/27 06:41:25;;;;;;;0.85;0.40;;;;;;;12.60;100.00;102514.09;10593951;27;20473;-77
2022/10/27 06:46:27;;;;;;;0.55;0.55;;;;;;;12.59;100.00;102520.09;10610683;27;20147;-77
2022/10/27 06:51:28;;;;;;;0.13;0.08;;;;;;;12.63;100.00;102516.81;10629019;27;20458;-77
2022/10/27 06:56:30;;;;;;;2.75;0.40;;;;;;;12.74;100.00;102514.69;10628706;27;20088;-77
2022/10/27 07:01:32;;;;;;;0.68;0.68;;;;;;;12.80;100.00;102498.53;10628400;27;20063;-77
2022/10/27 07:06:33;;;;;;;0.55;0.40;;;;;;;13.01;100.00;102496.84;10628361;27;20490;-78
2022/10/27 07:11:35;;;;;;;0.20;0.10;;;;;;;13.12;100.00;102480.91;10609674;27;20118;-77
2022/10/27 07:16:36;;;;;;;0.85;0.40;;;;;;;13.26;100.00;102484.91;10609647;27;20080;-78
2022/10/27 07:21:38;;;;;;;0.65;0.32;;;;;;;13.43;100.00;102476.97;10627527;27;20059;-78
2022/10/27 07:26:40;;;;;;;0.68;0.50;;;;;;;13.67;100.00;102466.69;10627390;27;20075;-77
2022/10/27 07:31:46;;;;;;;0.70;0.13;;;;;;;13.93;100.00;102439.16;10610256;27;20061;-77
2022/10/27 07:36:47;;;;;;;0.17;0.13;;;;;;;14.21;100.00;102422.00;10608261;27;20498;-77
2022/10/27 07:41:49;;;;;;;1.63;0.68;;;;;;;14.52;100.00;102391.94;10609236;27;20134;-77
2022/10/27 07:46:50;;;;;;;0.32;0.20;;;;;;;14.69;100.00;102365.72;10626592;27;20049;-76
2022/10/27 07:51:52;;;;;;;0.45;0.43;;;;;;;14.81;100.00;102340.16;10591045;27;20498;-77
2022/10/27 07:56:53;;;;;;;0.38;0.38;;;;;;;15.03;100.00;102330.44;10626776;27;20478;-76
2022/10/27 08:01:55;;;;;;;0.05;0.05;;;;;;;15.15;100.00;102298.78;10626131;27;20035;-77
2022/10/27 08:06:57;;;;;;;4.43;1.25;;;;;;;15.42;100.00;102287.41;10625838;27;20039;-78
2022/10/27 08:11:58;;;;;;;0.75;0.50;;;;;;;15.39;100.00;102257.06;10625762;27;20067;-77
2022/10/27 08:17:00;;;;;;;1.00;0.43;;;;;;;16.15;100.00;102233.06;10607880;27;20053;-77
2022/10/27 08:22:05;;;;;;;0.00;0.00;;;;;;;16.00;100.00;102216.25;10606962;27;20054;-76
2022/10/27 08:27:14;;;;;;;0.00;0.00;;;;;;;15.86;100.00;102223.69;10608194;27;20379;-77
2022/10/27 08:32:15;;;;;;;0.35;0.20;;;;;;;15.94;100.00;102221.28;10606811;27;20063;-77
2022/10/27 08:37:17;;;;;;;1.52;0.77;;;;;;;16.20;100.00;102199.34;10606512;27;20097;-77
2022/10/27 08:42:25;;;;;;;0.15;0.13;;;;;;;16.31;100.00;102182.28;10624767;27;20047;-76
2022/10/27 08:47:27;;;;;;;0.10;0.10;;;;;;;16.86;100.00;102179.13;10624376;27;20077;-77
2022/10/27 08:52:36;;;;;;;0.40;0.30;;;;;;;17.30;100.00;102171.31;10612403;28;20054;-79
2022/10/27 08:57:42;;;;;;;0.97;0.57;;;;;;;17.76;100.00;102160.81;10623093;28;20562;-78
2022/10/27 09:03:06;;;;;;;2.63;0.98;;;;;;;17.54;100.00;102164.75;10612838;28;20304;-80
2022/10/27 09:08:16;;;;;;;4.43;0.30;;;;;;;17.50;100.00;102162.97;10630879;28;20122;-79
2022/10/27 09:13:46;;;;;;;0.00;0.00;;;;;;;17.23;100.00;102157.28;10622005;28;20073;-79
2022/10/27 09:18:54;;;;;;;0.13;0.13;;;;;;;17.46;100.00;102156.81;10640495;28;20043;-79
2022/10/27 09:24:06;;;;;;;0.77;0.40;;;;;;;17.83;100.00;102147.00;10595285;28;20300;-79
2022/10/27 09:29:18;;;;;;;2.10;0.15;;;;;;;17.85;100.00;102141.81;10603361;28;20043;-80
2022/10/27 09:34:51;;;;;;;0.28;0.20;;;;;;;17.81;100.00;102127.00;10610269;28;20122;-80
2022/10/27 09:39:53;;;;;;;0.00;0.00;;;;;;;17.73;100.00;102124.25;10605972;28;20077;-79
2022/10/27 09:44:59;;;;;;;0.00;0.00;;;;;;;17.79;100.00;102102.63;10618097;28;20051;-80
2022/10/27 09:50:05;;;;;;;2.45;0.35;;;;;;;18.23;100.00;102110.22;10597674;28;20070;-79
2022/10/27 09:55:07;;;;;;;1.35;0.10;;;;;;;18.59;100.00;102108.94;10625118;28;20039;-79
2022/10/27 10:00:15;;;;;;;0.35;0.30;;;;;;;18.93;100.00;102108.47;10599229;28;20063;-79
2022/10/27 10:05:20;;;;;;;0.82;0.82;;;;;;;19.03;100.00;102105.97;10619122;27;20043;-79
2022/10/27 10:10:23;;;;;;;1.00;0.73;;;;;;;19.42;100.00;102084.53;10614865;27;20063;-80
2022/10/27 10:15:34;;;;;;;0.73;0.43;;;;;;;19.70;100.00;102066.44;10612133;27;20035;-79
2022/10/27 10:20:41;;;;;;;0.03;0.03;;;;;;;19.84;100.00;102070.06;10627781;27;20080;-79
2022/10/27 10:25:48;;;;;;;0.70;0.47;;;;;;;20.28;100.00;102066.78;10631644;27;20454;-79
2022/10/27 10:30:54;;;;;;;0.30;0.20;;;;;;;20.43;100.00;102065.09;10622958;27;20041;-79
2022/10/27 10:35:58;;;;;;;0.17;0.17;;;;;;;20.60;100.00;102057.28;10610049;27;20050;-79
2022/10/27 10:41:11;;;;;;;0.35;0.13;;;;;;;20.31;100.00;102052.84;10628965;27;20390;-79
2022/10/27 10:46:23;;;;;;;0.15;0.10;;;;;;;20.26;100.00;102037.13;10615179;27;20051;-79
2022/10/27 10:51:34;;;;;;;0.00;0.00;;;;;;;20.94;100.00;102035.56;10615768;27;20096;-78
2022/10/27 10:56:36;;;;;;;0.25;0.08;;;;;;;21.78;100.00;102031.97;10625423;27;20498;-79
2022/10/27 11:01:42;;;;;;;0.28;0.20;;;;;;;21.82;100.00;102027.59;10625125;27;20092;-78
2022/10/27 11:07:24;;;;;;;1.38;0.38;;;;;;;21.33;100.00;102018.09;10620242;27;20630;-78
2022/10/27 11:12:40;;;;;;;0.00;0.00;;;;;;;21.09;100.00;101988.41;10610585;27;20047;-79
2022/10/27 11:17:48;;;;;;;0.15;0.10;;;;;;;20.91;100.00;101984.91;10621934;27;20051;-79
2022/10/27 11:22:52;;;;;;;0.30;0.28;;;;;;;21.02;100.00;101997.13;10628973;27;20050;-79
2022/10/27 11:28:15;;;;;;;0.38;0.00;;;;;;;20.96;100.00;101979.66;10632103;27;20039;-79
2022/10/27 11:33:27;;;;;;;0.57;0.43;;;;;;;20.98;100.00;101990.13;10611026;27;20043;-79
2022/10/27 11:38:37;;;;;;;0.52;0.10;;;;;;;20.81;100.00;101988.41;10609342;27;20431;-78
2022/10/27 11:44:21;;;;;;;0.00;0.00;;;;;;;20.43;100.00;101986.59;10627766;27;20132;-79
2022/10/27 11:49:32;;;;;;;1.08;0.28;;;;;;;20.92;100.00;101965.69;10514679;27;20063;-78
2022/10/27 11:54:34;;;;;;;0.00;0.00;;;;;;;21.26;100.00;101969.16;10629103;27;20118;-78
2022/10/27 11:59:52;;;;;;;0.10;0.10;;;;;;;20.91;100.00;101961.31;10620362;27;20043;-78
2022/10/27 12:05:06;;;;;;;0.00;0.00;;;;;;;20.72;100.00;101962.19;10631176;27;20043;-79
2022/10/27 12:10:20;;;;;;;0.00;0.00;;;;;;;20.82;100.00;101958.69;10630901;27;20119;-78
2022/10/27 12:15:31;;;;;;;0.30;0.30;;;;;;;20.68;100.00;101952.56;10609939;27;20046;-78
2022/10/27 12:20:41;;;;;;;0.20;0.00;;;;;;;20.59;100.00;101956.91;10617147;27;20054;-78
2022/10/27 12:25:57;;;;;;;1.83;0.25;;;;;;;20.56;100.00;101945.56;10597855;27;20432;-78
2022/10/27 12:31:03;;;;;;;0.25;0.08;;;;;;;20.45;100.00;101929.84;10627095;27;20039;-78
2022/10/27 12:36:24;;;;;;;0.10;0.10;;;;;;;20.41;100.00;101935.97;10611231;27;20054;-78
2022/10/27 12:41:38;;;;;;;0.00;0.00;;;;;;;20.72;100.00;101930.75;10626267;27;20409;-78
2022/10/27 12:46:49;;;;;;;0.10;0.03;;;;;;;20.76;100.00;101932.53;10610523;27;20050;-78
2022/10/27 12:52:17;;;;;;;0.10;0.10;;;;;;;20.85;100.00;101922.03;10608074;27;20478;-78
2022/10/27 12:57:31;;;;;;;0.05;0.05;;;;;;;20.75;100.00;101925.53;10610533;28;20051;-79
2022/10/27 13:02:42;;;;;;;1.55;0.47;;;;;;;20.76;100.00;101919.44;10594379;28;20074;-77
2022/10/27 13:08:04;;;;;;;0.80;0.43;;;;;;;20.81;100.00;101909.84;10624648;28;20125;-76
2022/10/27 13:13:41;;;;;;;2.97;0.05;;;;;;;20.52;100.00;101918.50;10624817;28;20054;-77
2022/10/27 13:25:05;;;;;;;0.15;0.00;;;;;;;20.39;100.00;101893.22;10606493;28;20054;-77
2022/10/27 13:30:19;;;;;;;0.00;0.00;;;;;;;20.36;100.00;101872.28;10623960;28;20045;-76
2022/10/27 13:35:33;;;;;;;0.45;0.40;;;;;;;20.22;100.00;101861.81;10624422;27;20092;-77
2022/10/27 13:40:37;;;;;;;0.35;0.30;;;;;;;20.20;100.00;101848.72;10632256;27;20067;-76
2022/10/27 13:45:41;;;;;;;0.55;0.45;;;;;;;20.18;100.00;101858.31;10613305;27;20387;-75
2022/10/27 13:50:48;;;;;;;5.47;0.13;;;;;;;19.99;100.00;101854.78;10613750;27;20075;-76
2022/10/27 13:56:35;;;;;;;0.32;0.20;;;;;;;19.97;100.00;101854.78;10631530;27;20043;-76
2022/10/27 14:01:51;;;;;;;0.00;0.00;;;;;;;19.92;100.00;101853.03;10631032;27;20494;-75
2022/10/27 14:07:02;;;;;;;0.00;0.00;;;;;;;19.88;100.00;101848.69;10614297;27;20050;-75
2022/10/27 14:12:25;;;;;;;0.03;0.03;;;;;;;19.87;100.00;101834.72;10612213;27;20138;-75
2022/10/27 14:17:28;;;;;;;0.30;0.28;;;;;;;19.80;100.00;101827.69;10630742;27;20140;-75
2022/10/27 14:22:37;;;;;;;0.00;0.00;;;;;;;19.75;100.00;101829.44;10631775;27;20072;-75
2022/10/27 14:27:38;;;;;;;0.00;0.00;;;;;;;19.71;100.00;101831.16;10631152;27;20047;-74
2022/10/27 14:32:40;;;;;;;0.57;0.47;;;;;;;19.61;100.00;101827.66;10611554;27;20074;-75
2022/10/27 14:37:42;;;;;;;0.30;0.20;;;;;;;19.65;100.00;101826.78;10630978;27;20120;-75
2022/10/27 14:42:44;;;;;;;0.10;0.10;;;;;;;19.57;100.00;101820.66;10629404;27;20041;-75
2022/10/27 14:47:54;;;;;;;0.95;0.20;;;;;;;19.55;100.00;101811.94;10617608;27;20122;-75
2022/10/27 14:52:58;;;;;;;0.38;0.17;;;;;;;19.48;100.00;101811.06;10651857;27;20043;-75
2022/10/27 14:58:00;;;;;;;0.00;0.00;;;;;;;19.49;100.00;101812.81;10634355;27;20093;-75
2022/10/27 15:03:07;;;;;;;0.10;0.10;;;;;;;19.47;100.00;101818.91;10641162;27;20402;-75
2022/10/27 15:08:34;;;;;;;8.98;1.38;;;;;;;19.41;100.00;101813.63;10628482;27;20054;-75
2022/10/27 15:13:35;;;;;;;0.10;0.10;;;;;;;19.37;100.00;101796.22;10628293;27;20039;-75
2022/10/27 15:18:41;;;;;;;0.20;0.17;;;;;;;19.35;100.00;101793.59;10637420;27;20130;-74
2022/10/27 15:23:45;;;;;;;0.00;0.00;;;;;;;19.33;100.00;101806.63;10670887;27;20477;-75
2022/10/27 15:28:47;;;;;;;0.10;0.10;;;;;;;19.31;100.00;101812.72;10670874;27;20073;-75
2022/10/27 15:34:00;;;;;;;2.30;1.10;;;;;;;19.29;100.00;101810.13;10651864;27;20576;-75
2022/10/27 15:39:10;;;;;;;1.27;0.47;;;;;;;19.30;100.00;101811.88;10670638;27;20069;-75
2022/10/27 15:44:22;;;;;;;0.10;0.10;;;;;;;19.26;100.00;101822.28;10651679;27;20497;-76
2022/10/27 15:49:29;;;;;;;0.52;0.52;;;;;;;19.25;100.00;101818.78;10669763;27;20445;-76
2022/10/27 15:54:51;;;;;;;1.13;0.40;;;;;;;19.09;100.00;101833.53;10651015;27;20034;-76
2022/10/27 16:00:04;;;;;;;0.45;0.30;;;;;;;19.02;100.00;101831.75;10649742;27;20133;-76
2022/10/27 16:05:46;;;;;;;0.00;0.00;;;;;;;18.87;100.00;101838.59;10652025;27;20072;-77
2022/10/27 16:10:50;;;;;;;1.58;0.93;;;;;;;18.80;100.00;101846.41;10520692;28;20121;-76
2022/10/27 16:15:52;;;;;;;0.57;0.22;;;;;;;18.59;100.00;101847.09;10641360;27;20046;-77
2022/10/27 16:20:54;;;;;;;1.85;1.42;;;;;;;18.63;100.00;101839.31;10669048;27;20126;-76
2022/10/27 16:25:56;;;;;;;1.33;0.57;;;;;;;18.66;100.00;101828.00;10649533;27;20050;-76
2022/10/27 16:30:57;;;;;;;0.32;0.15;;;;;;;18.69;100.00;101831.53;10668010;27;20114;-77
2022/10/27 16:35:59;;;;;;;0.32;0.32;;;;;;;18.60;100.00;101834.06;10667968;27;20047;-77
2022/10/27 16:41:01;;;;;;;0.22;0.20;;;;;;;18.60;100.00;101838.41;10632090;27;20043;-76
2022/10/27 16:46:03;;;;;;;1.25;0.65;;;;;;;18.55;100.00;101841.84;10667765;27;20401;-77
2022/10/27 16:51:06;;;;;;;1.40;0.90;;;;;;;18.47;100.00;101845.25;10667664;27;20125;-77
2022/10/27 16:56:10;;;;;;;0.55;0.55;;;;;;;18.42;100.00;101854.81;10667334;27;20071;-77
2022/10/27 17:01:15;;;;;;;0.40;0.20;;;;;;;18.48;100.00;101857.47;10648452;27;20049;-76
2022/10/27 17:06:20;;;;;;;0.43;0.43;;;;;;;18.42;100.00;101860.03;10667084;27;20043;-76
2022/10/27 17:11:22;;;;;;;1.60;0.47;;;;;;;18.32;100.00;101846.88;10670639;27;20065;-76
2022/10/27 17:16:24;;;;;;;0.63;0.25;;;;;;;18.25;100.00;101852.91;10675765;27;20050;-76
2022/10/27 17:21:25;;;;;;;0.65;0.40;;;;;;;18.40;100.00;101844.31;10675705;27;20038;-78
2022/10/27 17:26:27;;;;;;;2.30;0.80;;;;;;;18.38;100.00;101844.31;10675328;27;20133;-76
2022/10/27 17:31:29;;;;;;;0.28;0.25;;;;;;;18.23;100.00;101844.19;10675205;27;20046;-75
2022/10/27 17:36:30;;;;;;;0.63;0.50;;;;;;;18.14;100.00;101855.41;10674955;27;20520;-76
2022/10/27 17:41:32;;;;;;;0.20;0.20;;;;;;;18.26;100.00;101870.31;10646394;27;20043;-76
2022/10/27 17:46:33;;;;;;;0.73;0.73;;;;;;;18.13;100.00;101863.25;10631697;27;20066;-77
2022/10/27 17:51:35;;;;;;;0.40;0.30;;;;;;;17.82;100.00;101871.56;10631690;27;20088;-76
2022/10/27 17:56:37;;;;;;;0.63;0.43;;;;;;;17.99;100.00;101871.75;10615832;27;20051;-80
2022/10/27 18:01:41;;;;;;;0.55;0.40;;;;;;;17.75;100.00;101873.25;10619343;27;20070;-78
2022/10/27 18:06:43;;;;;;;0.88;0.25;;;;;;;17.75;100.00;101875.84;10638763;27;20050;-79
2022/10/27 18:11:44;;;;;;;0.60;0.40;;;;;;;17.83;100.00;101880.28;10607690;27;20047;-80
2022/10/27 18:16:46;;;;;;;0.52;0.25;;;;;;;17.66;100.00;101893.06;10623680;27;20043;-79
2022/10/27 18:21:47;;;;;;;1.23;0.55;;;;;;;17.47;100.00;101891.97;10638585;27;20039;-79
2022/10/27 18:26:52;;;;;;;0.20;0.20;;;;;;;17.43;100.00;101897.16;10617778;27;20094;-79
2022/10/27 18:31:55;;;;;;;0.40;0.30;;;;;;;17.42;100.00;101905.81;10629629;27;20060;-79
2022/10/27 18:36:56;;;;;;;1.05;0.50;;;;;;;17.29;100.00;101901.31;10634074;27;20466;-79
2022/10/27 18:41:58;;;;;;;0.95;0.63;;;;;;;17.23;100.00;101904.69;10619054;27;20043;-80
2022/10/27 18:47:04;;;;;;;0.25;0.17;;;;;;;17.14;100.00;101927.97;10619501;27;20115;-80
2022/10/27 18:52:06;;;;;;;0.30;0.28;;;;;;;17.29;100.00;101919.53;10640195;27;20114;-79
2022/10/27 18:57:08;;;;;;;0.68;0.68;;;;;;;17.23;100.00;101904.69;10631344;27;20067;-79
2022/10/27 19:02:10;;;;;;;0.52;0.50;;;;;;;17.23;100.00;101909.03;10630565;27;20043;-79
2022/10/27 19:07:12;;;;;;;3.92;1.55;;;;;;;17.15;100.00;101915.84;10622355;27;20057;-79
2022/10/27 19:12:13;;;;;;;1.40;1.00;;;;;;;17.06;100.00;101917.47;10641505;27;20043;-79
2022/10/27 19:17:15;;;;;;;0.32;0.30;;;;;;;17.00;100.00;101916.47;10638455;27;20070;-78
2022/10/27 19:22:19;;;;;;;0.38;0.30;;;;;;;17.03;100.00;101927.81;10624867;27;20063;-78
2022/10/27 19:27:20;;;;;;;0.47;0.40;;;;;;;16.96;100.00;101936.38;10638355;27;20390;-80
2022/10/27 19:32:22;;;;;;;0.25;0.13;;;;;;;16.85;100.00;101943.13;10608982;27;20435;-79
2022/10/27 19:37:23;;;;;;;0.32;0.30;;;;;;;16.77;100.00;101972.50;10628982;27;20478;-79
2022/10/27 19:42:25;;;;;;;2.58;0.45;;;;;;;16.75;100.00;101976.78;10638164;27;20054;-79
2022/10/27 19:47:28;;;;;;;0.40;0.28;;;;;;;16.68;100.00;101992.28;10621117;27;20061;-79
2022/10/27 19:52:29;;;;;;;0.90;0.45;;;;;;;16.40;100.00;102028.16;10639630;27;20047;-79
2022/10/27 19:57:33;;;;;;;0.45;0.43;;;;;;;16.09;100.00;102038.81;10639784;27;20521;-79
2022/10/27 20:02:35;;;;;;;0.45;0.40;;;;;;;16.32;100.00;102051.41;10652544;27;20039;-79
2022/10/27 20:07:39;;;;;;;0.30;0.30;;;;;;;16.44;100.00;102049.06;10626768;27;20045;-79
2022/10/27 20:12:41;;;;;;;1.20;0.95;;;;;;;16.42;100.00;102044.69;10644173;27;20437;-78
2022/10/27 20:17:42;;;;;;;0.75;0.60;;;;;;;16.35;100.00;102056.66;10630351;27;20398;-77
2022/10/27 20:22:44;;;;;;;0.65;0.43;;;;;;;16.36;100.00;102061.03;10615781;27;20547;-78
2022/10/27 20:27:45;;;;;;;0.55;0.45;;;;;;;16.29;100.00;102064.34;10609455;27;20100;-78
2022/10/27 20:32:47;;;;;;;0.20;0.20;;;;;;;16.31;100.00;102055.72;10621655;27;20054;-78
2022/10/27 20:37:48;;;;;;;0.30;0.30;;;;;;;16.21;100.00;102053.81;10618071;27;20454;-79
2022/10/27 20:42:51;;;;;;;9.13;0.63;;;;;;;16.19;100.00;102065.88;10579828;27;20130;-78
2022/10/27 20:47:53;;;;;;;0.30;0.30;;;;;;;16.26;100.00;102065.16;10620485;27;20476;-78
2022/10/27 20:52:54;;;;;;;4.28;2.10;;;;;;;16.32;100.00;102072.22;10619050;27;20452;-78
2022/10/27 20:57:56;;;;;;;1.45;0.77;;;;;;;16.35;100.00;102069.66;10601631;28;20043;-78
2022/10/27 21:02:57;;;;;;;0.75;0.57;;;;;;;16.30;100.00;102071.31;10619850;28;20138;-78
2022/10/27 21:07:59;;;;;;;0.85;0.70;;;;;;;16.15;100.00;102079.69;10599133;28;20393;-79
2022/10/27 21:13:09;;;;;;;1.48;1.15;;;;;;;16.29;100.00;102079.94;10600330;28;20031;-78
2022/10/27 21:18:10;;;;;;;1.50;0.50;;;;;;;16.34;100.00;102075.75;10616442;27;20077;-78
2022/10/27 21:23:13;;;;;;;1.20;0.57;;;;;;;16.41;100.00;102066.31;10620907;28;20032;-77
2022/10/27 21:28:15;;;;;;;1.52;0.85;;;;;;;16.44;100.00;102063.81;10648981;28;20052;-78
2022/10/27 21:33:17;;;;;;;1.10;0.55;;;;;;;16.50;100.00;102066.53;10639819;28;20262;-78
2022/10/27 21:38:19;;;;;;;0.52;0.47;;;;;;;16.59;100.00;102056.31;10600945;28;20417;-77
2022/10/27 21:43:20;;;;;;;2.78;2.15;;;;;;;16.59;100.00;102058.91;10616577;28;20043;-78
2022/10/27 21:48:23;;;;;;;0.50;0.50;;;;;;;16.67;100.00;102061.63;10600140;28;20050;-78
2022/10/27 21:53:25;;;;;;;1.75;0.93;;;;;;;16.57;100.00;102050.19;10622186;28;20039;-76
2022/10/27 21:58:29;;;;;;;2.65;0.47;;;;;;;16.68;100.00;102055.59;10626559;27;20042;-76
2022/10/27 22:03:31;;;;;;;2.42;0.65;;;;;;;16.68;100.00;102071.19;10612835;27;20060;-76
2022/10/27 22:08:34;;;;;;;0.93;0.40;;;;;;;16.65;100.00;102058.13;10612906;27;20141;-76
2022/10/27 22:13:37;;;;;;;0.20;0.20;;;;;;;16.64;100.00;102053.78;10630785;27;20045;-77
2022/10/27 22:18:40;;;;;;;0.40;0.20;;;;;;;16.59;100.00;102045.00;10630525;27;20134;-76
2022/10/27 22:23:42;;;;;;;1.00;0.68;;;;;;;16.56;100.00;102051.03;10613253;27;20110;-76
2022/10/27 22:28:49;;;;;;;0.22;0.22;;;;;;;16.45;100.00;102052.56;10630897;27;20054;-76
2022/10/27 22:33:52;;;;;;;2.35;0.28;;;;;;;16.31;100.00;102054.88;10629579;27;20067;-77
2022/10/27 22:38:57;;;;;;;1.13;0.73;;;;;;;16.30;100.00;102063.50;10629663;27;20079;-77
2022/10/27 22:43:58;;;;;;;3.47;0.88;;;;;;;16.36;100.00;102058.44;10629415;27;20485;-76
2022/10/27 22:49:00;;;;;;;6.97;0.63;;;;;;;16.44;100.00;102051.66;10629204;27;20097;-76
2022/10/27 22:54:02;;;;;;;1.38;0.77;;;;;;;16.42;100.00;102045.53;10628992;27;20045;-76
2022/10/27 22:59:07;;;;;;;0.20;0.20;;;;;;;16.31;100.00;102057.47;10629665;27;20074;-76
2022/10/27 23:04:13;;;;;;;0.30;0.30;;;;;;;16.36;100.00;102058.44;10628832;27;20053;-76
2022/10/27 23:09:16;;;;;;;0.20;0.10;;;;;;;16.38;100.00;102050.69;10610071;27;20067;-76
2022/10/27 23:14:18;;;;;;;0.00;0.00;;;;;;;16.38;100.00;102051.53;10610107;27;20039;-76